createdAt,value
2022-09-30T00:03:48.945Z,3.53
2022-09-30T00:18:49.395Z,1.74
2022-09-30T00:33:49.058Z,1.61
2022-09-30T00:48:49.414Z,2.49
2022-09-30T01:03:49.693Z,1.81
2022-09-30T01:18:49.758Z,2.31
2022-09-30T01:33:49.134Z,2.25
2022-09-30T01:48:50.783Z,2.48
2022-09-30T02:05:00.734Z,2.81
2022-09-30T02:18:50.611Z,2.71
2022-09-30T03:33:48.835Z,2.78
2022-09-30T03:48:49.317Z,6.28
2022-09-30T04:03:49.069Z,5.93
2022-09-30T04:18:49.341Z,3.56
2022-09-30T04:33:48.849Z,4.73
2022-09-30T04:48:49.895Z,16.81
2022-09-30T05:03:48.810Z,17.97
2022-09-30T05:18:48.783Z,10.87
2022-09-30T05:33:57.208Z,14.04
2022-09-30T05:48:49.523Z,8.93
2022-09-30T06:03:52.315Z,8.26
2022-09-30T06:18:48.874Z,17.68
2022-09-30T06:33:49.168Z,20.79
2022-09-30T06:48:49.133Z,12.1
2022-09-30T07:03:54.547Z,11.53
2022-09-30T07:33:48.864Z,9.99
2022-09-30T07:48:51.705Z,10.75
2022-09-30T08:03:49.431Z,13.39
2022-09-30T08:18:49.224Z,22.78
2022-09-30T08:33:54.185Z,14.63
2022-09-30T08:48:49.547Z,8.88
2022-09-30T09:03:48.969Z,8.58
2022-09-30T09:18:49.696Z,6.27
2022-09-30T09:33:51.614Z,15.37
2022-09-30T10:03:48.850Z,6.48
2022-09-30T10:18:48.794Z,5.65
2022-09-30T10:33:49.016Z,5.21
2022-09-30T10:48:48.920Z,6.23
2022-09-30T11:03:49.084Z,5.29
2022-09-30T11:18:48.955Z,5.32
2022-09-30T11:33:49.237Z,11.12
2022-09-30T11:48:49.445Z,15.35
2022-09-30T12:03:49.276Z,9.86
2022-09-30T12:18:49.003Z,8.08
2022-09-30T12:33:48.657Z,7.02
2022-09-30T12:48:49.516Z,5.93
2022-09-30T13:03:48.898Z,2.75
2022-09-30T13:18:49.647Z,2.07
2022-09-30T13:33:49.036Z,1.34
2022-09-30T13:48:49.397Z,0.77
2022-09-30T14:03:48.999Z,2.43
2022-09-30T14:18:49.331Z,4.66
2022-09-30T14:33:49.936Z,4.37
2022-09-30T14:48:50.034Z,6.04
2022-09-30T15:03:54.758Z,6.84
2022-09-30T15:33:50.758Z,6.21
2022-09-30T15:48:49.981Z,4.68
2022-09-30T16:03:49.555Z,4.26
2022-09-30T16:18:50.216Z,5.41
2022-09-30T16:48:55.171Z,5.62
2022-09-30T17:03:49.201Z,13.1
2022-09-30T17:18:49.615Z,22
2022-09-30T17:33:49.311Z,39.02
2022-09-30T17:48:50.889Z,16.85
2022-09-30T18:18:49.757Z,7.52
2022-09-30T18:48:50.517Z,16.4
2022-09-30T19:04:00.550Z,8.05
2022-09-30T19:18:53.700Z,4.51
2022-09-30T19:33:56.344Z,8.42
2022-09-30T19:48:50.032Z,7.07
2022-09-30T20:03:51.190Z,6.39
2022-09-30T20:18:50.111Z,6.49
2022-09-30T20:33:50.878Z,7.09
2022-09-30T20:48:49.148Z,8.85
2022-09-30T21:03:49.853Z,7.82
2022-09-30T21:18:49.031Z,7.94
2022-09-30T21:33:55.422Z,8.14
2022-09-30T22:18:50.655Z,7.91
2022-09-30T22:48:56.202Z,8.99
2022-09-30T23:03:49.482Z,6.93
2022-09-30T23:18:49.460Z,11.04
2022-09-30T23:48:57.309Z,7.59
